<?xml version="1.0" encoding="UTF-8" standalone="no" ?>
<gpx xmlns="http://www.topografix.com/GPX/1/1" xmlns:xsi="http://www.w3.org/2001/XMLSchema-instance" xsi:schemaLocation="http://www.topografix.com/GPX/1/1 http://www.topografix.com/GPX/1/1/gpx.xsd" version="1.1" creator="VisuGPX - https://www.visugpx.com">
  <metadata>
    <name>Boucle autour d' Arnaud-Guilhem</name>
    <desc><![CDATA[Rando vtt dans un coin sympa]]></desc>
  </metadata>
  <trk>
    <name><![CDATA[13419133-parcours vtt vttae petites Pyrénées Arnaud-Guilhem]]></name>
    <trkseg>
      <trkpt lat="43.14409" lon="0.8948">
        <ele>417</ele>
        <time>2021-07-23T11:02:21Z</time>
      </trkpt>
      <trkpt lat="43.14405" lon="0.89475">
        <ele>417</ele>
        <time>2021-07-23T11:02:22Z</time>
      </trkpt>
      <trkpt lat="43.14413" lon="0.89481">
        <ele>417</ele>
        <time>2021-07-23T11:02:24Z</time>
      </trkpt>
      <trkpt lat="43.14413" lon="0.89472">
        <ele>417</ele>
        <time>2021-07-23T11:02:26Z</time>
      </trkpt>
      <trkpt lat="43.14408" lon="0.89472">
        <ele>417</ele>
        <time>2021-07-23T11:02:27Z</time>
      </trkpt>
      <trkpt lat="43.14402" lon="0.89479">
        <ele>416</ele>
        <time>2021-07-23T11:02:29Z</time>
      </trkpt>
      <trkpt lat="43.14367" lon="0.89558">
        <ele>416</ele>
        <time>2021-07-23T11:02:45Z</time>
      </trkpt>
      <trkpt lat="43.1435" lon="0.89614">
        <ele>417</ele>
        <time>2021-07-23T11:02:55Z</time>
      </trkpt>
      <trkpt lat="43.14308" lon="0.89719">
        <ele>414</ele>
        <time>2021-07-23T11:03:15Z</time>
      </trkpt>
      <trkpt lat="43.14305" lon="0.89746">
        <ele>412</ele>
        <time>2021-07-23T11:03:20Z</time>
      </trkpt>
      <trkpt lat="43.14316" lon="0.89769">
        <ele>410</ele>
        <time>2021-07-23T11:03:25Z</time>
      </trkpt>
      <trkpt lat="43.14334" lon="0.89787">
        <ele>408</ele>
        <time>2021-07-23T11:03:30Z</time>
      </trkpt>
      <trkpt lat="43.1435" lon="0.89792">
        <ele>406</ele>
        <time>2021-07-23T11:03:34Z</time>
      </trkpt>
      <trkpt lat="43.14363" lon="0.8981">
        <ele>402</ele>
        <time>2021-07-23T11:03:38Z</time>
      </trkpt>
      <trkpt lat="43.14393" lon="0.89829">
        <ele>395</ele>
        <time>2021-07-23T11:03:46Z</time>
      </trkpt>
      <trkpt lat="43.14455" lon="0.89852">
        <ele>383</ele>
        <time>2021-07-23T11:04:01Z</time>
      </trkpt>
      <trkpt lat="43.14485" lon="0.89857">
        <ele>379</ele>
        <time>2021-07-23T11:04:08Z</time>
      </trkpt>
      <trkpt lat="43.14494" lon="0.89862">
        <ele>377</ele>
        <time>2021-07-23T11:04:10Z</time>
      </trkpt>
      <trkpt lat="43.14522" lon="0.89863">
        <ele>373</ele>
        <time>2021-07-23T11:04:17Z</time>
      </trkpt>
      <trkpt lat="43.14548" lon="0.89847">
        <ele>371</ele>
        <time>2021-07-23T11:04:23Z</time>
      </trkpt>
      <trkpt lat="43.14581" lon="0.89809">
        <ele>370</ele>
        <time>2021-07-23T11:04:33Z</time>
      </trkpt>
      <trkpt lat="43.14638" lon="0.89768">
        <ele>374</ele>
        <time>2021-07-23T11:04:48Z</time>
      </trkpt>
      <trkpt lat="43.14647" lon="0.89754">
        <ele>374</ele>
        <time>2021-07-23T11:04:52Z</time>
      </trkpt>
      <trkpt lat="43.14657" lon="0.89705">
        <ele>376</ele>
        <time>2021-07-23T11:05:00Z</time>
      </trkpt>
      <trkpt lat="43.14665" lon="0.89687">
        <ele>376</ele>
        <time>2021-07-23T11:05:04Z</time>
      </trkpt>
      <trkpt lat="43.14702" lon="0.89675">
        <ele>377</ele>
        <time>2021-07-23T11:05:13Z</time>
      </trkpt>
      <trkpt lat="43.14843" lon="0.89692">
        <ele>385</ele>
        <time>2021-07-23T11:05:46Z</time>
      </trkpt>
      <trkpt lat="43.14858" lon="0.89702">
        <ele>386</ele>
        <time>2021-07-23T11:05:50Z</time>
      </trkpt>
      <trkpt lat="43.14874" lon="0.89748">
        <ele>387</ele>
        <time>2021-07-23T11:05:58Z</time>
      </trkpt>
      <trkpt lat="43.1489" lon="0.89833">
        <ele>389</ele>
        <time>2021-07-23T11:06:13Z</time>
      </trkpt>
      <trkpt lat="43.14901" lon="0.89934">
        <ele>391</ele>
        <time>2021-07-23T11:06:31Z</time>
      </trkpt>
      <trkpt lat="43.14909" lon="0.8996">
        <ele>391</ele>
        <time>2021-07-23T11:06:36Z</time>
      </trkpt>
      <trkpt lat="43.14942" lon="0.89975">
        <ele>395</ele>
        <time>2021-07-23T11:06:44Z</time>
      </trkpt>
      <trkpt lat="43.14975" lon="0.89979">
        <ele>398</ele>
        <time>2021-07-23T11:06:51Z</time>
      </trkpt>
      <trkpt lat="43.14988" lon="0.89972">
        <ele>400</ele>
        <time>2021-07-23T11:06:55Z</time>
      </trkpt>
      <trkpt lat="43.14997" lon="0.89958">
        <ele>401</ele>
        <time>2021-07-23T11:06:58Z</time>
      </trkpt>
      <trkpt lat="43.15015" lon="0.8989">
        <ele>407</ele>
        <time>2021-07-23T11:07:10Z</time>
      </trkpt>
      <trkpt lat="43.15048" lon="0.89805">
        <ele>414</ele>
        <time>2021-07-23T11:07:27Z</time>
      </trkpt>
      <trkpt lat="43.15071" lon="0.8972">
        <ele>416</ele>
        <time>2021-07-23T11:07:42Z</time>
      </trkpt>
      <trkpt lat="43.15093" lon="0.89656">
        <ele>416</ele>
        <time>2021-07-23T11:07:54Z</time>
      </trkpt>
      <trkpt lat="43.15172" lon="0.89536">
        <ele>419</ele>
        <time>2021-07-23T11:08:22Z</time>
      </trkpt>
      <trkpt lat="43.15189" lon="0.89526">
        <ele>421</ele>
        <time>2021-07-23T11:08:26Z</time>
      </trkpt>
      <trkpt lat="43.15224" lon="0.89527">
        <ele>426</ele>
        <time>2021-07-23T11:08:34Z</time>
      </trkpt>
      <trkpt lat="43.15257" lon="0.89523">
        <ele>429</ele>
        <time>2021-07-23T11:08:42Z</time>
      </trkpt>
      <trkpt lat="43.15309" lon="0.89527">
        <ele>433</ele>
        <time>2021-07-23T11:08:54Z</time>
      </trkpt>
      <trkpt lat="43.15343" lon="0.89534">
        <ele>436</ele>
        <time>2021-07-23T11:09:02Z</time>
      </trkpt>
      <trkpt lat="43.15375" lon="0.89553">
        <ele>436</ele>
        <time>2021-07-23T11:09:10Z</time>
      </trkpt>
      <trkpt lat="43.15387" lon="0.89571">
        <ele>436</ele>
        <time>2021-07-23T11:09:14Z</time>
      </trkpt>
      <trkpt lat="43.15392" lon="0.89588">
        <ele>436</ele>
        <time>2021-07-23T11:09:17Z</time>
      </trkpt>
      <trkpt lat="43.15406" lon="0.89675">
        <ele>438</ele>
        <time>2021-07-23T11:09:33Z</time>
      </trkpt>
      <trkpt lat="43.15417" lon="0.89709">
        <ele>438</ele>
        <time>2021-07-23T11:09:39Z</time>
      </trkpt>
      <trkpt lat="43.15433" lon="0.89741">
        <ele>437</ele>
        <time>2021-07-23T11:09:46Z</time>
      </trkpt>
      <trkpt lat="43.15468" lon="0.89795">
        <ele>436</ele>
        <time>2021-07-23T11:09:58Z</time>
      </trkpt>
      <trkpt lat="43.15489" lon="0.89811">
        <ele>434</ele>
        <time>2021-07-23T11:10:04Z</time>
      </trkpt>
      <trkpt lat="43.15515" lon="0.89818">
        <ele>432</ele>
        <time>2021-07-23T11:10:10Z</time>
      </trkpt>
      <trkpt lat="43.15572" lon="0.89826">
        <ele>426</ele>
        <time>2021-07-23T11:10:23Z</time>
      </trkpt>
      <trkpt lat="43.1565" lon="0.89829">
        <ele>418</ele>
        <time>2021-07-23T11:10:41Z</time>
      </trkpt>
      <trkpt lat="43.15726" lon="0.89818">
        <ele>410</ele>
        <time>2021-07-23T11:10:59Z</time>
      </trkpt>
      <trkpt lat="43.15831" lon="0.89778">
        <ele>395</ele>
        <time>2021-07-23T11:11:25Z</time>
      </trkpt>
      <trkpt lat="43.15889" lon="0.89792">
        <ele>384</ele>
        <time>2021-07-23T11:11:38Z</time>
      </trkpt>
      <trkpt lat="43.15901" lon="0.89788">
        <ele>381</ele>
        <time>2021-07-23T11:11:41Z</time>
      </trkpt>
      <trkpt lat="43.15917" lon="0.89768">
        <ele>379</ele>
        <time>2021-07-23T11:11:46Z</time>
      </trkpt>
      <trkpt lat="43.1593" lon="0.89728">
        <ele>378</ele>
        <time>2021-07-23T11:11:54Z</time>
      </trkpt>
      <trkpt lat="43.15934" lon="0.89688">
        <ele>378</ele>
        <time>2021-07-23T11:12:01Z</time>
      </trkpt>
      <trkpt lat="43.15941" lon="0.89672">
        <ele>377</ele>
        <time>2021-07-23T11:12:04Z</time>
      </trkpt>
      <trkpt lat="43.15955" lon="0.89676">
        <ele>376</ele>
        <time>2021-07-23T11:12:07Z</time>
      </trkpt>
      <trkpt lat="43.15975" lon="0.89698">
        <ele>374</ele>
        <time>2021-07-23T11:12:13Z</time>
      </trkpt>
      <trkpt lat="43.16023" lon="0.89765">
        <ele>369</ele>
        <time>2021-07-23T11:12:29Z</time>
      </trkpt>
      <trkpt lat="43.16045" lon="0.8981">
        <ele>368</ele>
        <time>2021-07-23T11:12:38Z</time>
      </trkpt>
      <trkpt lat="43.16073" lon="0.89895">
        <ele>363</ele>
        <time>2021-07-23T11:12:54Z</time>
      </trkpt>
      <trkpt lat="43.16091" lon="0.89913">
        <ele>363</ele>
        <time>2021-07-23T11:12:59Z</time>
      </trkpt>
      <trkpt lat="43.16133" lon="0.8994">
        <ele>363</ele>
        <time>2021-07-23T11:13:10Z</time>
      </trkpt>
      <trkpt lat="43.16152" lon="0.89959">
        <ele>363</ele>
        <time>2021-07-23T11:13:16Z</time>
      </trkpt>
      <trkpt lat="43.16183" lon="0.89998">
        <ele>363</ele>
        <time>2021-07-23T11:13:26Z</time>
      </trkpt>
      <trkpt lat="43.16196" lon="0.90022">
        <ele>364</ele>
        <time>2021-07-23T11:13:31Z</time>
      </trkpt>
      <trkpt lat="43.16291" lon="0.90234">
        <ele>362</ele>
        <time>2021-07-23T11:14:13Z</time>
      </trkpt>
      <trkpt lat="43.16339" lon="0.90472">
        <ele>362</ele>
        <time>2021-07-23T11:14:55Z</time>
      </trkpt>
      <trkpt lat="43.16374" lon="0.90587">
        <ele>357</ele>
        <time>2021-07-23T11:15:16Z</time>
      </trkpt>
      <trkpt lat="43.16412" lon="0.90655">
        <ele>358</ele>
        <time>2021-07-23T11:15:31Z</time>
      </trkpt>
      <trkpt lat="43.16408" lon="0.90681">
        <ele>356</ele>
        <time>2021-07-23T11:15:35Z</time>
      </trkpt>
      <trkpt lat="43.16395" lon="0.90703">
        <ele>353</ele>
        <time>2021-07-23T11:15:40Z</time>
      </trkpt>
      <trkpt lat="43.16391" lon="0.90722">
        <ele>352</ele>
        <time>2021-07-23T11:15:44Z</time>
      </trkpt>
      <trkpt lat="43.16396" lon="0.90752">
        <ele>351</ele>
        <time>2021-07-23T11:15:49Z</time>
      </trkpt>
      <trkpt lat="43.16388" lon="0.9081">
        <ele>345</ele>
        <time>2021-07-23T11:15:59Z</time>
      </trkpt>
      <trkpt lat="43.16379" lon="0.90818">
        <ele>345</ele>
        <time>2021-07-23T11:16:01Z</time>
      </trkpt>
      <trkpt lat="43.16357" lon="0.90813">
        <ele>345</ele>
        <time>2021-07-23T11:16:07Z</time>
      </trkpt>
      <trkpt lat="43.16337" lon="0.90784">
        <ele>346</ele>
        <time>2021-07-23T11:16:13Z</time>
      </trkpt>
      <trkpt lat="43.16308" lon="0.90763">
        <ele>345</ele>
        <time>2021-07-23T11:16:21Z</time>
      </trkpt>
      <trkpt lat="43.1632" lon="0.90778">
        <ele>346</ele>
        <time>2021-07-23T11:16:25Z</time>
      </trkpt>
      <trkpt lat="43.16323" lon="0.90794">
        <ele>346</ele>
        <time>2021-07-23T11:16:28Z</time>
      </trkpt>
      <trkpt lat="43.16321" lon="0.90814">
        <ele>347</ele>
        <time>2021-07-23T11:16:31Z</time>
      </trkpt>
      <trkpt lat="43.16314" lon="0.90833">
        <ele>348</ele>
        <time>2021-07-23T11:16:35Z</time>
      </trkpt>
      <trkpt lat="43.16302" lon="0.9085">
        <ele>349</ele>
        <time>2021-07-23T11:16:39Z</time>
      </trkpt>
      <trkpt lat="43.16285" lon="0.90863">
        <ele>350</ele>
        <time>2021-07-23T11:16:43Z</time>
      </trkpt>
      <trkpt lat="43.16253" lon="0.90918">
        <ele>353</ele>
        <time>2021-07-23T11:16:55Z</time>
      </trkpt>
      <trkpt lat="43.16249" lon="0.90948">
        <ele>354</ele>
        <time>2021-07-23T11:17:01Z</time>
      </trkpt>
      <trkpt lat="43.16256" lon="0.9096">
        <ele>354</ele>
        <time>2021-07-23T11:17:03Z</time>
      </trkpt>
      <trkpt lat="43.16276" lon="0.90962">
        <ele>353</ele>
        <time>2021-07-23T11:17:08Z</time>
      </trkpt>
      <trkpt lat="43.16287" lon="0.90971">
        <ele>354</ele>
        <time>2021-07-23T11:17:11Z</time>
      </trkpt>
      <trkpt lat="43.16296" lon="0.90987">
        <ele>354</ele>
        <time>2021-07-23T11:17:14Z</time>
      </trkpt>
      <trkpt lat="43.16302" lon="0.91025">
        <ele>358</ele>
        <time>2021-07-23T11:17:21Z</time>
      </trkpt>
      <trkpt lat="43.16285" lon="0.91078">
        <ele>363</ele>
        <time>2021-07-23T11:17:31Z</time>
      </trkpt>
      <trkpt lat="43.16321" lon="0.91163">
        <ele>369</ele>
        <time>2021-07-23T11:17:48Z</time>
      </trkpt>
      <trkpt lat="43.16329" lon="0.91193">
        <ele>369</ele>
        <time>2021-07-23T11:17:53Z</time>
      </trkpt>
      <trkpt lat="43.1633" lon="0.91255">
        <ele>370</ele>
        <time>2021-07-23T11:18:04Z</time>
      </trkpt>
      <trkpt lat="43.16324" lon="0.91308">
        <ele>372</ele>
        <time>2021-07-23T11:18:13Z</time>
      </trkpt>
      <trkpt lat="43.16311" lon="0.91356">
        <ele>379</ele>
        <time>2021-07-23T11:18:21Z</time>
      </trkpt>
      <trkpt lat="43.16311" lon="0.91374">
        <ele>381</ele>
        <time>2021-07-23T11:18:24Z</time>
      </trkpt>
      <trkpt lat="43.16319" lon="0.91383">
        <ele>381</ele>
        <time>2021-07-23T11:18:27Z</time>
      </trkpt>
      <trkpt lat="43.16363" lon="0.91403">
        <ele>381</ele>
        <time>2021-07-23T11:18:38Z</time>
      </trkpt>
      <trkpt lat="43.16375" lon="0.91416">
        <ele>383</ele>
        <time>2021-07-23T11:18:41Z</time>
      </trkpt>
      <trkpt lat="43.164" lon="0.91467">
        <ele>394</ele>
        <time>2021-07-23T11:18:52Z</time>
      </trkpt>
      <trkpt lat="43.16412" lon="0.91482">
        <ele>398</ele>
        <time>2021-07-23T11:18:56Z</time>
      </trkpt>
      <trkpt lat="43.16439" lon="0.91503">
        <ele>403</ele>
        <time>2021-07-23T11:19:03Z</time>
      </trkpt>
      <trkpt lat="43.16484" lon="0.91516">
        <ele>406</ele>
        <time>2021-07-23T11:19:14Z</time>
      </trkpt>
      <trkpt lat="43.16532" lon="0.91511">
        <ele>407</ele>
        <time>2021-07-23T11:19:25Z</time>
      </trkpt>
      <trkpt lat="43.16546" lon="0.91512">
        <ele>408</ele>
        <time>2021-07-23T11:19:28Z</time>
      </trkpt>
      <trkpt lat="43.16558" lon="0.91518">
        <ele>409</ele>
        <time>2021-07-23T11:19:31Z</time>
      </trkpt>
      <trkpt lat="43.1658" lon="0.9151">
        <ele>410</ele>
        <time>2021-07-23T11:19:36Z</time>
      </trkpt>
      <trkpt lat="43.16595" lon="0.91496">
        <ele>409</ele>
        <time>2021-07-23T11:19:41Z</time>
      </trkpt>
      <trkpt lat="43.16652" lon="0.91435">
        <ele>400</ele>
        <time>2021-07-23T11:19:57Z</time>
      </trkpt>
      <trkpt lat="43.16717" lon="0.9135">
        <ele>382</ele>
        <time>2021-07-23T11:20:18Z</time>
      </trkpt>
      <trkpt lat="43.16746" lon="0.91324">
        <ele>377</ele>
        <time>2021-07-23T11:20:27Z</time>
      </trkpt>
      <trkpt lat="43.16774" lon="0.91289">
        <ele>367</ele>
        <time>2021-07-23T11:20:35Z</time>
      </trkpt>
      <trkpt lat="43.16866" lon="0.91207">
        <ele>343</ele>
        <time>2021-07-23T11:21:01Z</time>
      </trkpt>
      <trkpt lat="43.16902" lon="0.91193">
        <ele>336</ele>
        <time>2021-07-23T11:21:10Z</time>
      </trkpt>
      <trkpt lat="43.16927" lon="0.91173">
        <ele>331</ele>
        <time>2021-07-23T11:21:17Z</time>
      </trkpt>
      <trkpt lat="43.16933" lon="0.91133">
        <ele>326</ele>
        <time>2021-07-23T11:21:23Z</time>
      </trkpt>
      <trkpt lat="43.16922" lon="0.91063">
        <ele>321</ele>
        <time>2021-07-23T11:21:36Z</time>
      </trkpt>
      <trkpt lat="43.16903" lon="0.91035">
        <ele>320</ele>
        <time>2021-07-23T11:21:42Z</time>
      </trkpt>
      <trkpt lat="43.16904" lon="0.90961">
        <ele>323</ele>
        <time>2021-07-23T11:21:55Z</time>
      </trkpt>
      <trkpt lat="43.16914" lon="0.90917">
        <ele>328</ele>
        <time>2021-07-23T11:22:03Z</time>
      </trkpt>
      <trkpt lat="43.16938" lon="0.90852">
        <ele>332</ele>
        <time>2021-07-23T11:22:15Z</time>
      </trkpt>
      <trkpt lat="43.16942" lon="0.90823">
        <ele>333</ele>
        <time>2021-07-23T11:22:20Z</time>
      </trkpt>
      <trkpt lat="43.16977" lon="0.90703">
        <ele>341</ele>
        <time>2021-07-23T11:22:42Z</time>
      </trkpt>
      <trkpt lat="43.16984" lon="0.90596">
        <ele>349</ele>
        <time>2021-07-23T11:23:00Z</time>
      </trkpt>
      <trkpt lat="43.17015" lon="0.90437">
        <ele>352</ele>
        <time>2021-07-23T11:23:28Z</time>
      </trkpt>
      <trkpt lat="43.17071" lon="0.90247">
        <ele>348</ele>
        <time>2021-07-23T11:24:03Z</time>
      </trkpt>
      <trkpt lat="43.17088" lon="0.90208">
        <ele>345</ele>
        <time>2021-07-23T11:24:11Z</time>
      </trkpt>
      <trkpt lat="43.17125" lon="0.90146">
        <ele>343</ele>
        <time>2021-07-23T11:24:25Z</time>
      </trkpt>
      <trkpt lat="43.17177" lon="0.90039">
        <ele>335</ele>
        <time>2021-07-23T11:24:47Z</time>
      </trkpt>
      <trkpt lat="43.17201" lon="0.89999">
        <ele>331</ele>
        <time>2021-07-23T11:24:55Z</time>
      </trkpt>
      <trkpt lat="43.17215" lon="0.89965">
        <ele>329</ele>
        <time>2021-07-23T11:25:02Z</time>
      </trkpt>
      <trkpt lat="43.17228" lon="0.89881">
        <ele>324</ele>
        <time>2021-07-23T11:25:17Z</time>
      </trkpt>
      <trkpt lat="43.17273" lon="0.89766">
        <ele>316</ele>
        <time>2021-07-23T11:25:39Z</time>
      </trkpt>
      <trkpt lat="43.17301" lon="0.89739">
        <ele>314</ele>
        <time>2021-07-23T11:25:47Z</time>
      </trkpt>
      <trkpt lat="43.17349" lon="0.89681">
        <ele>309</ele>
        <time>2021-07-23T11:26:02Z</time>
      </trkpt>
      <trkpt lat="43.17354" lon="0.89651">
        <ele>308</ele>
        <time>2021-07-23T11:26:07Z</time>
      </trkpt>
      <trkpt lat="43.17316" lon="0.89542">
        <ele>308</ele>
        <time>2021-07-23T11:26:28Z</time>
      </trkpt>
      <trkpt lat="43.17304" lon="0.89399">
        <ele>309</ele>
        <time>2021-07-23T11:26:52Z</time>
      </trkpt>
      <trkpt lat="43.17293" lon="0.89343">
        <ele>310</ele>
        <time>2021-07-23T11:27:02Z</time>
      </trkpt>
      <trkpt lat="43.17274" lon="0.8929">
        <ele>310</ele>
        <time>2021-07-23T11:27:12Z</time>
      </trkpt>
      <trkpt lat="43.1723" lon="0.89198">
        <ele>314</ele>
        <time>2021-07-23T11:27:31Z</time>
      </trkpt>
      <trkpt lat="43.17206" lon="0.89137">
        <ele>317</ele>
        <time>2021-07-23T11:27:43Z</time>
      </trkpt>
      <trkpt lat="43.17208" lon="0.89103">
        <ele>320</ele>
        <time>2021-07-23T11:27:48Z</time>
      </trkpt>
      <trkpt lat="43.17229" lon="0.89005">
        <ele>328</ele>
        <time>2021-07-23T11:28:06Z</time>
      </trkpt>
      <trkpt lat="43.17243" lon="0.88871">
        <ele>336</ele>
        <time>2021-07-23T11:28:29Z</time>
      </trkpt>
      <trkpt lat="43.1725" lon="0.88866">
        <ele>336</ele>
        <time>2021-07-23T11:28:31Z</time>
      </trkpt>
      <trkpt lat="43.1726" lon="0.88877">
        <ele>335</ele>
        <time>2021-07-23T11:28:34Z</time>
      </trkpt>
      <trkpt lat="43.17283" lon="0.88888">
        <ele>333</ele>
        <time>2021-07-23T11:28:39Z</time>
      </trkpt>
      <trkpt lat="43.1731" lon="0.88887">
        <ele>330</ele>
        <time>2021-07-23T11:28:46Z</time>
      </trkpt>
      <trkpt lat="43.17338" lon="0.88876">
        <ele>328</ele>
        <time>2021-07-23T11:28:53Z</time>
      </trkpt>
      <trkpt lat="43.17389" lon="0.88844">
        <ele>322</ele>
        <time>2021-07-23T11:29:06Z</time>
      </trkpt>
      <trkpt lat="43.17423" lon="0.88832">
        <ele>319</ele>
        <time>2021-07-23T11:29:14Z</time>
      </trkpt>
      <trkpt lat="43.17456" lon="0.88841">
        <ele>318</ele>
        <time>2021-07-23T11:29:22Z</time>
      </trkpt>
      <trkpt lat="43.17478" lon="0.88861">
        <ele>318</ele>
        <time>2021-07-23T11:29:28Z</time>
      </trkpt>
      <trkpt lat="43.17492" lon="0.88881">
        <ele>318</ele>
        <time>2021-07-23T11:29:33Z</time>
      </trkpt>
      <trkpt lat="43.17531" lon="0.88988">
        <ele>332</ele>
        <time>2021-07-23T11:29:53Z</time>
      </trkpt>
      <trkpt lat="43.17541" lon="0.89033">
        <ele>337</ele>
        <time>2021-07-23T11:30:01Z</time>
      </trkpt>
      <trkpt lat="43.17539" lon="0.89087">
        <ele>340</ele>
        <time>2021-07-23T11:30:10Z</time>
      </trkpt>
      <trkpt lat="43.17547" lon="0.89097">
        <ele>342</ele>
        <time>2021-07-23T11:30:13Z</time>
      </trkpt>
      <trkpt lat="43.17567" lon="0.89095">
        <ele>345</ele>
        <time>2021-07-23T11:30:17Z</time>
      </trkpt>
      <trkpt lat="43.17678" lon="0.89051">
        <ele>343</ele>
        <time>2021-07-23T11:30:44Z</time>
      </trkpt>
      <trkpt lat="43.17702" lon="0.89038">
        <ele>340</ele>
        <time>2021-07-23T11:30:50Z</time>
      </trkpt>
      <trkpt lat="43.17777" lon="0.88979">
        <ele>335</ele>
        <time>2021-07-23T11:31:11Z</time>
      </trkpt>
      <trkpt lat="43.17848" lon="0.88913">
        <ele>332</ele>
        <time>2021-07-23T11:31:31Z</time>
      </trkpt>
      <trkpt lat="43.17894" lon="0.88855">
        <ele>325</ele>
        <time>2021-07-23T11:31:45Z</time>
      </trkpt>
      <trkpt lat="43.17918" lon="0.88828">
        <ele>321</ele>
        <time>2021-07-23T11:31:52Z</time>
      </trkpt>
      <trkpt lat="43.17947" lon="0.88805">
        <ele>320</ele>
        <time>2021-07-23T11:32:00Z</time>
      </trkpt>
      <trkpt lat="43.17969" lon="0.88775">
        <ele>319</ele>
        <time>2021-07-23T11:32:08Z</time>
      </trkpt>
      <trkpt lat="43.17997" lon="0.88721">
        <ele>321</ele>
        <time>2021-07-23T11:32:19Z</time>
      </trkpt>
      <trkpt lat="43.18021" lon="0.88662">
        <ele>323</ele>
        <time>2021-07-23T11:32:30Z</time>
      </trkpt>
      <trkpt lat="43.18056" lon="0.88598">
        <ele>322</ele>
        <time>2021-07-23T11:32:44Z</time>
      </trkpt>
      <trkpt lat="43.1807" lon="0.88557">
        <ele>321</ele>
        <time>2021-07-23T11:32:52Z</time>
      </trkpt>
      <trkpt lat="43.18079" lon="0.88425">
        <ele>333</ele>
        <time>2021-07-23T11:33:14Z</time>
      </trkpt>
      <trkpt lat="43.1809" lon="0.88372">
        <ele>340</ele>
        <time>2021-07-23T11:33:24Z</time>
      </trkpt>
      <trkpt lat="43.18112" lon="0.88304">
        <ele>347</ele>
        <time>2021-07-23T11:33:36Z</time>
      </trkpt>
      <trkpt lat="43.18118" lon="0.88276">
        <ele>352</ele>
        <time>2021-07-23T11:33:41Z</time>
      </trkpt>
      <trkpt lat="43.18114" lon="0.88266">
        <ele>356</ele>
        <time>2021-07-23T11:33:43Z</time>
      </trkpt>
      <trkpt lat="43.18097" lon="0.88266">
        <ele>360</ele>
        <time>2021-07-23T11:33:47Z</time>
      </trkpt>
      <trkpt lat="43.18088" lon="0.8827">
        <ele>361</ele>
        <time>2021-07-23T11:33:49Z</time>
      </trkpt>
      <trkpt lat="43.18038" lon="0.88304">
        <ele>365</ele>
        <time>2021-07-23T11:34:02Z</time>
      </trkpt>
      <trkpt lat="43.17984" lon="0.88334">
        <ele>372</ele>
        <time>2021-07-23T11:34:16Z</time>
      </trkpt>
      <trkpt lat="43.1796" lon="0.88341">
        <ele>374</ele>
        <time>2021-07-23T11:34:22Z</time>
      </trkpt>
      <trkpt lat="43.17944" lon="0.88338">
        <ele>376</ele>
        <time>2021-07-23T11:34:26Z</time>
      </trkpt>
      <trkpt lat="43.17928" lon="0.88333">
        <ele>378</ele>
        <time>2021-07-23T11:34:29Z</time>
      </trkpt>
      <trkpt lat="43.17917" lon="0.8832">
        <ele>379</ele>
        <time>2021-07-23T11:34:33Z</time>
      </trkpt>
      <trkpt lat="43.17913" lon="0.88228">
        <ele>380</ele>
        <time>2021-07-23T11:34:48Z</time>
      </trkpt>
      <trkpt lat="43.17917" lon="0.88182">
        <ele>380</ele>
        <time>2021-07-23T11:34:56Z</time>
      </trkpt>
      <trkpt lat="43.17927" lon="0.88133">
        <ele>379</ele>
        <time>2021-07-23T11:35:05Z</time>
      </trkpt>
      <trkpt lat="43.18081" lon="0.87732">
        <ele>373</ele>
        <time>2021-07-23T11:36:22Z</time>
      </trkpt>
      <trkpt lat="43.18067" lon="0.87719">
        <ele>372</ele>
        <time>2021-07-23T11:36:26Z</time>
      </trkpt>
      <trkpt lat="43.18041" lon="0.87718">
        <ele>372</ele>
        <time>2021-07-23T11:36:32Z</time>
      </trkpt>
      <trkpt lat="43.17951" lon="0.87734">
        <ele>373</ele>
        <time>2021-07-23T11:36:53Z</time>
      </trkpt>
      <trkpt lat="43.17906" lon="0.87736">
        <ele>372</ele>
        <time>2021-07-23T11:37:04Z</time>
      </trkpt>
      <trkpt lat="43.17895" lon="0.87722">
        <ele>371</ele>
        <time>2021-07-23T11:37:07Z</time>
      </trkpt>
      <trkpt lat="43.17896" lon="0.8763">
        <ele>373</ele>
        <time>2021-07-23T11:37:23Z</time>
      </trkpt>
      <trkpt lat="43.17912" lon="0.87564">
        <ele>377</ele>
        <time>2021-07-23T11:37:35Z</time>
      </trkpt>
      <trkpt lat="43.17908" lon="0.87544">
        <ele>377</ele>
        <time>2021-07-23T11:37:38Z</time>
      </trkpt>
      <trkpt lat="43.17879" lon="0.87479">
        <ele>380</ele>
        <time>2021-07-23T11:37:51Z</time>
      </trkpt>
      <trkpt lat="43.17821" lon="0.87407">
        <ele>384</ele>
        <time>2021-07-23T11:38:10Z</time>
      </trkpt>
      <trkpt lat="43.17816" lon="0.87387">
        <ele>386</ele>
        <time>2021-07-23T11:38:13Z</time>
      </trkpt>
      <trkpt lat="43.17819" lon="0.87367">
        <ele>388</ele>
        <time>2021-07-23T11:38:17Z</time>
      </trkpt>
      <trkpt lat="43.17816" lon="0.87351">
        <ele>390</ele>
        <time>2021-07-23T11:38:20Z</time>
      </trkpt>
      <trkpt lat="43.17767" lon="0.87298">
        <ele>388</ele>
        <time>2021-07-23T11:38:34Z</time>
      </trkpt>
      <trkpt lat="43.17747" lon="0.87267">
        <ele>386</ele>
        <time>2021-07-23T11:38:41Z</time>
      </trkpt>
      <trkpt lat="43.17735" lon="0.87229">
        <ele>386</ele>
        <time>2021-07-23T11:38:48Z</time>
      </trkpt>
      <trkpt lat="43.17731" lon="0.87198">
        <ele>388</ele>
        <time>2021-07-23T11:38:54Z</time>
      </trkpt>
      <trkpt lat="43.17735" lon="0.87146">
        <ele>393</ele>
        <time>2021-07-23T11:39:03Z</time>
      </trkpt>
      <trkpt lat="43.1773" lon="0.8712">
        <ele>395</ele>
        <time>2021-07-23T11:39:07Z</time>
      </trkpt>
      <trkpt lat="43.17663" lon="0.87023">
        <ele>392</ele>
        <time>2021-07-23T11:39:30Z</time>
      </trkpt>
      <trkpt lat="43.1766" lon="0.87">
        <ele>393</ele>
        <time>2021-07-23T11:39:34Z</time>
      </trkpt>
      <trkpt lat="43.17678" lon="0.86947">
        <ele>391</ele>
        <time>2021-07-23T11:39:44Z</time>
      </trkpt>
      <trkpt lat="43.17763" lon="0.86785">
        <ele>381</ele>
        <time>2021-07-23T11:40:18Z</time>
      </trkpt>
      <trkpt lat="43.17806" lon="0.86712">
        <ele>378</ele>
        <time>2021-07-23T11:40:34Z</time>
      </trkpt>
      <trkpt lat="43.17963" lon="0.86306">
        <ele>361</ele>
        <time>2021-07-23T11:41:52Z</time>
      </trkpt>
      <trkpt lat="43.17993" lon="0.86246">
        <ele>355</ele>
        <time>2021-07-23T11:42:04Z</time>
      </trkpt>
      <trkpt lat="43.18009" lon="0.86188">
        <ele>354</ele>
        <time>2021-07-23T11:42:15Z</time>
      </trkpt>
      <trkpt lat="43.18011" lon="0.86153">
        <ele>354</ele>
        <time>2021-07-23T11:42:21Z</time>
      </trkpt>
      <trkpt lat="43.17983" lon="0.86098">
        <ele>357</ele>
        <time>2021-07-23T11:42:32Z</time>
      </trkpt>
      <trkpt lat="43.17973" lon="0.86088">
        <ele>359</ele>
        <time>2021-07-23T11:42:35Z</time>
      </trkpt>
      <trkpt lat="43.17963" lon="0.86093">
        <ele>361</ele>
        <time>2021-07-23T11:42:38Z</time>
      </trkpt>
      <trkpt lat="43.17937" lon="0.86131">
        <ele>366</ele>
        <time>2021-07-23T11:42:47Z</time>
      </trkpt>
      <trkpt lat="43.17841" lon="0.86222">
        <ele>379</ele>
        <time>2021-07-23T11:43:14Z</time>
      </trkpt>
      <trkpt lat="43.17826" lon="0.86231">
        <ele>381</ele>
        <time>2021-07-23T11:43:18Z</time>
      </trkpt>
      <trkpt lat="43.17792" lon="0.86234">
        <ele>386</ele>
        <time>2021-07-23T11:43:26Z</time>
      </trkpt>
      <trkpt lat="43.17759" lon="0.86223">
        <ele>390</ele>
        <time>2021-07-23T11:43:34Z</time>
      </trkpt>
      <trkpt lat="43.17725" lon="0.86203">
        <ele>394</ele>
        <time>2021-07-23T11:43:42Z</time>
      </trkpt>
      <trkpt lat="43.17711" lon="0.86201">
        <ele>396</ele>
        <time>2021-07-23T11:43:46Z</time>
      </trkpt>
      <trkpt lat="43.17696" lon="0.86206">
        <ele>398</ele>
        <time>2021-07-23T11:43:49Z</time>
      </trkpt>
      <trkpt lat="43.17639" lon="0.86243">
        <ele>406</ele>
        <time>2021-07-23T11:44:04Z</time>
      </trkpt>
      <trkpt lat="43.17613" lon="0.86267">
        <ele>409</ele>
        <time>2021-07-23T11:44:11Z</time>
      </trkpt>
      <trkpt lat="43.17552" lon="0.86312">
        <ele>413</ele>
        <time>2021-07-23T11:44:27Z</time>
      </trkpt>
      <trkpt lat="43.17483" lon="0.86345">
        <ele>416</ele>
        <time>2021-07-23T11:44:44Z</time>
      </trkpt>
      <trkpt lat="43.17351" lon="0.8638">
        <ele>410</ele>
        <time>2021-07-23T11:45:16Z</time>
      </trkpt>
      <trkpt lat="43.17272" lon="0.86408">
        <ele>406</ele>
        <time>2021-07-23T11:45:35Z</time>
      </trkpt>
      <trkpt lat="43.17108" lon="0.86489">
        <ele>396</ele>
        <time>2021-07-23T11:46:16Z</time>
      </trkpt>
      <trkpt lat="43.16983" lon="0.8654">
        <ele>387</ele>
        <time>2021-07-23T11:46:46Z</time>
      </trkpt>
      <trkpt lat="43.16921" lon="0.86541">
        <ele>385</ele>
        <time>2021-07-23T11:47:01Z</time>
      </trkpt>
      <trkpt lat="43.16899" lon="0.86551">
        <ele>384</ele>
        <time>2021-07-23T11:47:06Z</time>
      </trkpt>
      <trkpt lat="43.16877" lon="0.86574">
        <ele>383</ele>
        <time>2021-07-23T11:47:12Z</time>
      </trkpt>
      <trkpt lat="43.16864" lon="0.86604">
        <ele>383</ele>
        <time>2021-07-23T11:47:18Z</time>
      </trkpt>
      <trkpt lat="43.16838" lon="0.86707">
        <ele>385</ele>
        <time>2021-07-23T11:47:37Z</time>
      </trkpt>
      <trkpt lat="43.16824" lon="0.86748">
        <ele>388</ele>
        <time>2021-07-23T11:47:45Z</time>
      </trkpt>
      <trkpt lat="43.16782" lon="0.86818">
        <ele>397</ele>
        <time>2021-07-23T11:48:00Z</time>
      </trkpt>
      <trkpt lat="43.16739" lon="0.86874">
        <ele>404</ele>
        <time>2021-07-23T11:48:14Z</time>
      </trkpt>
      <trkpt lat="43.16634" lon="0.86963">
        <ele>416</ele>
        <time>2021-07-23T11:48:43Z</time>
      </trkpt>
      <trkpt lat="43.16587" lon="0.87021">
        <ele>417</ele>
        <time>2021-07-23T11:48:57Z</time>
      </trkpt>
      <trkpt lat="43.16526" lon="0.87085">
        <ele>419</ele>
        <time>2021-07-23T11:49:15Z</time>
      </trkpt>
      <trkpt lat="43.16487" lon="0.87137">
        <ele>419</ele>
        <time>2021-07-23T11:49:28Z</time>
      </trkpt>
      <trkpt lat="43.16432" lon="0.87246">
        <ele>416</ele>
        <time>2021-07-23T11:49:51Z</time>
      </trkpt>
      <trkpt lat="43.16412" lon="0.8733">
        <ele>409</ele>
        <time>2021-07-23T11:50:06Z</time>
      </trkpt>
      <trkpt lat="43.16401" lon="0.87361">
        <ele>407</ele>
        <time>2021-07-23T11:50:12Z</time>
      </trkpt>
      <trkpt lat="43.16383" lon="0.87369">
        <ele>406</ele>
        <time>2021-07-23T11:50:16Z</time>
      </trkpt>
      <trkpt lat="43.16362" lon="0.87367">
        <ele>406</ele>
        <time>2021-07-23T11:50:21Z</time>
      </trkpt>
      <trkpt lat="43.16303" lon="0.87347">
        <ele>405</ele>
        <time>2021-07-23T11:50:35Z</time>
      </trkpt>
      <trkpt lat="43.16247" lon="0.87337">
        <ele>404</ele>
        <time>2021-07-23T11:50:48Z</time>
      </trkpt>
      <trkpt lat="43.16194" lon="0.87342">
        <ele>404</ele>
        <time>2021-07-23T11:51:01Z</time>
      </trkpt>
      <trkpt lat="43.16048" lon="0.87399">
        <ele>412</ele>
        <time>2021-07-23T11:51:36Z</time>
      </trkpt>
      <trkpt lat="43.16007" lon="0.87405">
        <ele>415</ele>
        <time>2021-07-23T11:51:46Z</time>
      </trkpt>
      <trkpt lat="43.15988" lon="0.87413">
        <ele>416</ele>
        <time>2021-07-23T11:51:50Z</time>
      </trkpt>
      <trkpt lat="43.15902" lon="0.87471">
        <ele>424</ele>
        <time>2021-07-23T11:52:13Z</time>
      </trkpt>
      <trkpt lat="43.15864" lon="0.87481">
        <ele>428</ele>
        <time>2021-07-23T11:52:22Z</time>
      </trkpt>
      <trkpt lat="43.15851" lon="0.87476">
        <ele>430</ele>
        <time>2021-07-23T11:52:25Z</time>
      </trkpt>
      <trkpt lat="43.15843" lon="0.87447">
        <ele>434</ele>
        <time>2021-07-23T11:52:30Z</time>
      </trkpt>
      <trkpt lat="43.15838" lon="0.87342">
        <ele>442</ele>
        <time>2021-07-23T11:52:48Z</time>
      </trkpt>
      <trkpt lat="43.15812" lon="0.871">
        <ele>449</ele>
        <time>2021-07-23T11:53:30Z</time>
      </trkpt>
      <trkpt lat="43.15805" lon="0.87082">
        <ele>450</ele>
        <time>2021-07-23T11:53:33Z</time>
      </trkpt>
      <trkpt lat="43.15794" lon="0.87071">
        <ele>451</ele>
        <time>2021-07-23T11:53:37Z</time>
      </trkpt>
      <trkpt lat="43.15739" lon="0.87046">
        <ele>453</ele>
        <time>2021-07-23T11:53:50Z</time>
      </trkpt>
      <trkpt lat="43.15731" lon="0.87034">
        <ele>453</ele>
        <time>2021-07-23T11:53:53Z</time>
      </trkpt>
      <trkpt lat="43.1573" lon="0.87019">
        <ele>455</ele>
        <time>2021-07-23T11:53:55Z</time>
      </trkpt>
      <trkpt lat="43.15769" lon="0.86888">
        <ele>465</ele>
        <time>2021-07-23T11:54:20Z</time>
      </trkpt>
      <trkpt lat="43.15805" lon="0.86792">
        <ele>469</ele>
        <time>2021-07-23T11:54:38Z</time>
      </trkpt>
      <trkpt lat="43.15869" lon="0.86721">
        <ele>468</ele>
        <time>2021-07-23T11:54:57Z</time>
      </trkpt>
      <trkpt lat="43.1589" lon="0.86705">
        <ele>469</ele>
        <time>2021-07-23T11:55:03Z</time>
      </trkpt>
      <trkpt lat="43.15907" lon="0.86683">
        <ele>470</ele>
        <time>2021-07-23T11:55:08Z</time>
      </trkpt>
      <trkpt lat="43.15917" lon="0.86659">
        <ele>472</ele>
        <time>2021-07-23T11:55:13Z</time>
      </trkpt>
      <trkpt lat="43.15935" lon="0.86545">
        <ele>472</ele>
        <time>2021-07-23T11:55:33Z</time>
      </trkpt>
      <trkpt lat="43.15979" lon="0.86395">
        <ele>474</ele>
        <time>2021-07-23T11:56:00Z</time>
      </trkpt>
      <trkpt lat="43.15986" lon="0.86353">
        <ele>475</ele>
        <time>2021-07-23T11:56:08Z</time>
      </trkpt>
      <trkpt lat="43.15981" lon="0.86309">
        <ele>476</ele>
        <time>2021-07-23T11:56:15Z</time>
      </trkpt>
      <trkpt lat="43.15983" lon="0.8627">
        <ele>475</ele>
        <time>2021-07-23T11:56:22Z</time>
      </trkpt>
      <trkpt lat="43.15979" lon="0.86259">
        <ele>475</ele>
        <time>2021-07-23T11:56:24Z</time>
      </trkpt>
      <trkpt lat="43.15968" lon="0.86248">
        <ele>475</ele>
        <time>2021-07-23T11:56:27Z</time>
      </trkpt>
      <trkpt lat="43.15927" lon="0.8622">
        <ele>472</ele>
        <time>2021-07-23T11:56:38Z</time>
      </trkpt>
      <trkpt lat="43.15901" lon="0.86206">
        <ele>469</ele>
        <time>2021-07-23T11:56:44Z</time>
      </trkpt>
      <trkpt lat="43.15847" lon="0.86191">
        <ele>460</ele>
        <time>2021-07-23T11:56:57Z</time>
      </trkpt>
      <trkpt lat="43.15817" lon="0.86178">
        <ele>456</ele>
        <time>2021-07-23T11:57:05Z</time>
      </trkpt>
      <trkpt lat="43.15785" lon="0.86158">
        <ele>452</ele>
        <time>2021-07-23T11:57:13Z</time>
      </trkpt>
      <trkpt lat="43.15636" lon="0.85998">
        <ele>429</ele>
        <time>2021-07-23T11:57:57Z</time>
      </trkpt>
      <trkpt lat="43.15552" lon="0.8589">
        <ele>416</ele>
        <time>2021-07-23T11:58:24Z</time>
      </trkpt>
      <trkpt lat="43.15534" lon="0.85877">
        <ele>413</ele>
        <time>2021-07-23T11:58:29Z</time>
      </trkpt>
      <trkpt lat="43.15516" lon="0.85879">
        <ele>412</ele>
        <time>2021-07-23T11:58:33Z</time>
      </trkpt>
      <trkpt lat="43.15499" lon="0.85893">
        <ele>410</ele>
        <time>2021-07-23T11:58:38Z</time>
      </trkpt>
      <trkpt lat="43.15471" lon="0.85936">
        <ele>411</ele>
        <time>2021-07-23T11:58:47Z</time>
      </trkpt>
      <trkpt lat="43.1544" lon="0.85964">
        <ele>412</ele>
        <time>2021-07-23T11:58:56Z</time>
      </trkpt>
      <trkpt lat="43.15382" lon="0.85998">
        <ele>410</ele>
        <time>2021-07-23T11:59:11Z</time>
      </trkpt>
      <trkpt lat="43.15332" lon="0.86004">
        <ele>406</ele>
        <time>2021-07-23T11:59:22Z</time>
      </trkpt>
      <trkpt lat="43.15278" lon="0.8602">
        <ele>403</ele>
        <time>2021-07-23T11:59:35Z</time>
      </trkpt>
      <trkpt lat="43.15265" lon="0.86031">
        <ele>403</ele>
        <time>2021-07-23T11:59:39Z</time>
      </trkpt>
      <trkpt lat="43.15259" lon="0.86049">
        <ele>403</ele>
        <time>2021-07-23T11:59:42Z</time>
      </trkpt>
      <trkpt lat="43.15255" lon="0.86109">
        <ele>407</ele>
        <time>2021-07-23T11:59:53Z</time>
      </trkpt>
      <trkpt lat="43.15261" lon="0.86257">
        <ele>419</ele>
        <time>2021-07-23T12:00:18Z</time>
      </trkpt>
      <trkpt lat="43.15272" lon="0.86355">
        <ele>419</ele>
        <time>2021-07-23T12:00:35Z</time>
      </trkpt>
      <trkpt lat="43.15272" lon="0.864">
        <ele>415</ele>
        <time>2021-07-23T12:00:42Z</time>
      </trkpt>
      <trkpt lat="43.1526" lon="0.86567">
        <ele>408</ele>
        <time>2021-07-23T12:01:11Z</time>
      </trkpt>
      <trkpt lat="43.15263" lon="0.86709">
        <ele>416</ele>
        <time>2021-07-23T12:01:35Z</time>
      </trkpt>
      <trkpt lat="43.15223" lon="0.8679">
        <ele>419</ele>
        <time>2021-07-23T12:01:52Z</time>
      </trkpt>
      <trkpt lat="43.15219" lon="0.86812">
        <ele>419</ele>
        <time>2021-07-23T12:01:56Z</time>
      </trkpt>
      <trkpt lat="43.15223" lon="0.86905">
        <ele>419</ele>
        <time>2021-07-23T12:02:12Z</time>
      </trkpt>
      <trkpt lat="43.15244" lon="0.87122">
        <ele>420</ele>
        <time>2021-07-23T12:02:49Z</time>
      </trkpt>
      <trkpt lat="43.15247" lon="0.87203">
        <ele>418</ele>
        <time>2021-07-23T12:03:03Z</time>
      </trkpt>
      <trkpt lat="43.15241" lon="0.87249">
        <ele>416</ele>
        <time>2021-07-23T12:03:11Z</time>
      </trkpt>
      <trkpt lat="43.15229" lon="0.87281">
        <ele>413</ele>
        <time>2021-07-23T12:03:17Z</time>
      </trkpt>
      <trkpt lat="43.15213" lon="0.87287">
        <ele>412</ele>
        <time>2021-07-23T12:03:21Z</time>
      </trkpt>
      <trkpt lat="43.15198" lon="0.87281">
        <ele>412</ele>
        <time>2021-07-23T12:03:24Z</time>
      </trkpt>
      <trkpt lat="43.1518" lon="0.87245">
        <ele>413</ele>
        <time>2021-07-23T12:03:32Z</time>
      </trkpt>
      <trkpt lat="43.15148" lon="0.87112">
        <ele>409</ele>
        <time>2021-07-23T12:03:56Z</time>
      </trkpt>
      <trkpt lat="43.15063" lon="0.86871">
        <ele>398</ele>
        <time>2021-07-23T12:04:41Z</time>
      </trkpt>
      <trkpt lat="43.15056" lon="0.86797">
        <ele>397</ele>
        <time>2021-07-23T12:04:54Z</time>
      </trkpt>
      <trkpt lat="43.15045" lon="0.86783">
        <ele>396</ele>
        <time>2021-07-23T12:04:57Z</time>
      </trkpt>
      <trkpt lat="43.15026" lon="0.86774">
        <ele>395</ele>
        <time>2021-07-23T12:05:02Z</time>
      </trkpt>
      <trkpt lat="43.15005" lon="0.86777">
        <ele>393</ele>
        <time>2021-07-23T12:05:07Z</time>
      </trkpt>
      <trkpt lat="43.14987" lon="0.86789">
        <ele>393</ele>
        <time>2021-07-23T12:05:12Z</time>
      </trkpt>
      <trkpt lat="43.1491" lon="0.8689">
        <ele>390</ele>
        <time>2021-07-23T12:05:37Z</time>
      </trkpt>
      <trkpt lat="43.1488" lon="0.86946">
        <ele>390</ele>
        <time>2021-07-23T12:05:48Z</time>
      </trkpt>
      <trkpt lat="43.14863" lon="0.86965">
        <ele>390</ele>
        <time>2021-07-23T12:05:54Z</time>
      </trkpt>
      <trkpt lat="43.14819" lon="0.86988">
        <ele>388</ele>
        <time>2021-07-23T12:06:05Z</time>
      </trkpt>
      <trkpt lat="43.14689" lon="0.87031">
        <ele>385</ele>
        <time>2021-07-23T12:06:36Z</time>
      </trkpt>
      <trkpt lat="43.14542" lon="0.87105">
        <ele>376</ele>
        <time>2021-07-23T12:07:12Z</time>
      </trkpt>
      <trkpt lat="43.14439" lon="0.87126">
        <ele>373</ele>
        <time>2021-07-23T12:07:37Z</time>
      </trkpt>
      <trkpt lat="43.1438" lon="0.87133">
        <ele>371</ele>
        <time>2021-07-23T12:07:51Z</time>
      </trkpt>
      <trkpt lat="43.14368" lon="0.87145">
        <ele>371</ele>
        <time>2021-07-23T12:07:54Z</time>
      </trkpt>
      <trkpt lat="43.1435" lon="0.87185">
        <ele>371</ele>
        <time>2021-07-23T12:08:02Z</time>
      </trkpt>
      <trkpt lat="43.14308" lon="0.87341">
        <ele>373</ele>
        <time>2021-07-23T12:08:30Z</time>
      </trkpt>
      <trkpt lat="43.14279" lon="0.87423">
        <ele>373</ele>
        <time>2021-07-23T12:08:46Z</time>
      </trkpt>
      <trkpt lat="43.14222" lon="0.87549">
        <ele>373</ele>
        <time>2021-07-23T12:09:11Z</time>
      </trkpt>
      <trkpt lat="43.1421" lon="0.87572">
        <ele>373</ele>
        <time>2021-07-23T12:09:16Z</time>
      </trkpt>
      <trkpt lat="43.1418" lon="0.87612">
        <ele>373</ele>
        <time>2021-07-23T12:09:26Z</time>
      </trkpt>
      <trkpt lat="43.14162" lon="0.87664">
        <ele>374</ele>
        <time>2021-07-23T12:09:36Z</time>
      </trkpt>
      <trkpt lat="43.14148" lon="0.87681">
        <ele>373</ele>
        <time>2021-07-23T12:09:40Z</time>
      </trkpt>
      <trkpt lat="43.14128" lon="0.87682">
        <ele>372</ele>
        <time>2021-07-23T12:09:45Z</time>
      </trkpt>
      <trkpt lat="43.14071" lon="0.87671">
        <ele>368</ele>
        <time>2021-07-23T12:09:58Z</time>
      </trkpt>
      <trkpt lat="43.14031" lon="0.87656">
        <ele>366</ele>
        <time>2021-07-23T12:10:08Z</time>
      </trkpt>
      <trkpt lat="43.13992" lon="0.87626">
        <ele>365</ele>
        <time>2021-07-23T12:10:18Z</time>
      </trkpt>
      <trkpt lat="43.13962" lon="0.87625">
        <ele>367</ele>
        <time>2021-07-23T12:10:25Z</time>
      </trkpt>
      <trkpt lat="43.13942" lon="0.87639">
        <ele>367</ele>
        <time>2021-07-23T12:10:30Z</time>
      </trkpt>
      <trkpt lat="43.13895" lon="0.87707">
        <ele>363</ele>
        <time>2021-07-23T12:10:46Z</time>
      </trkpt>
      <trkpt lat="43.13876" lon="0.87716">
        <ele>363</ele>
        <time>2021-07-23T12:10:51Z</time>
      </trkpt>
      <trkpt lat="43.13856" lon="0.87716">
        <ele>364</ele>
        <time>2021-07-23T12:10:56Z</time>
      </trkpt>
      <trkpt lat="43.13769" lon="0.87676">
        <ele>371</ele>
        <time>2021-07-23T12:11:17Z</time>
      </trkpt>
      <trkpt lat="43.13581" lon="0.87569">
        <ele>394</ele>
        <time>2021-07-23T12:12:05Z</time>
      </trkpt>
      <trkpt lat="43.13572" lon="0.87576">
        <ele>394</ele>
        <time>2021-07-23T12:12:07Z</time>
      </trkpt>
      <trkpt lat="43.13564" lon="0.87711">
        <ele>393</ele>
        <time>2021-07-23T12:12:30Z</time>
      </trkpt>
      <trkpt lat="43.13548" lon="0.87773">
        <ele>392</ele>
        <time>2021-07-23T12:12:41Z</time>
      </trkpt>
      <trkpt lat="43.13434" lon="0.88058">
        <ele>389</ele>
        <time>2021-07-23T12:13:37Z</time>
      </trkpt>
      <trkpt lat="43.1336" lon="0.88214">
        <ele>391</ele>
        <time>2021-07-23T12:14:09Z</time>
      </trkpt>
      <trkpt lat="43.13276" lon="0.88407">
        <ele>400</ele>
        <time>2021-07-23T12:14:47Z</time>
      </trkpt>
      <trkpt lat="43.13259" lon="0.88462">
        <ele>402</ele>
        <time>2021-07-23T12:14:57Z</time>
      </trkpt>
      <trkpt lat="43.1325" lon="0.88512">
        <ele>402</ele>
        <time>2021-07-23T12:15:06Z</time>
      </trkpt>
      <trkpt lat="43.13253" lon="0.88595">
        <ele>400</ele>
        <time>2021-07-23T12:15:20Z</time>
      </trkpt>
      <trkpt lat="43.13248" lon="0.8868">
        <ele>403</ele>
        <time>2021-07-23T12:15:34Z</time>
      </trkpt>
      <trkpt lat="43.13209" lon="0.89001">
        <ele>397</ele>
        <time>2021-07-23T12:16:30Z</time>
      </trkpt>
      <trkpt lat="43.13207" lon="0.89189">
        <ele>386</ele>
        <time>2021-07-23T12:17:02Z</time>
      </trkpt>
      <trkpt lat="43.13268" lon="0.8952">
        <ele>384</ele>
        <time>2021-07-23T12:18:00Z</time>
      </trkpt>
      <trkpt lat="43.13246" lon="0.8978">
        <ele>388</ele>
        <time>2021-07-23T12:18:45Z</time>
      </trkpt>
      <trkpt lat="43.13237" lon="0.89832">
        <ele>393</ele>
        <time>2021-07-23T12:18:54Z</time>
      </trkpt>
      <trkpt lat="43.13217" lon="0.89901">
        <ele>396</ele>
        <time>2021-07-23T12:19:07Z</time>
      </trkpt>
      <trkpt lat="43.13213" lon="0.89953">
        <ele>399</ele>
        <time>2021-07-23T12:19:15Z</time>
      </trkpt>
      <trkpt lat="43.13203" lon="0.90005">
        <ele>402</ele>
        <time>2021-07-23T12:19:25Z</time>
      </trkpt>
      <trkpt lat="43.13222" lon="0.90094">
        <ele>409</ele>
        <time>2021-07-23T12:19:40Z</time>
      </trkpt>
      <trkpt lat="43.13274" lon="0.90393">
        <ele>412</ele>
        <time>2021-07-23T12:20:33Z</time>
      </trkpt>
      <trkpt lat="43.13283" lon="0.90544">
        <ele>404</ele>
        <time>2021-07-23T12:20:59Z</time>
      </trkpt>
      <trkpt lat="43.13313" lon="0.90662">
        <ele>393</ele>
        <time>2021-07-23T12:21:20Z</time>
      </trkpt>
      <trkpt lat="43.13312" lon="0.90687">
        <ele>391</ele>
        <time>2021-07-23T12:21:24Z</time>
      </trkpt>
      <trkpt lat="43.13303" lon="0.90705">
        <ele>391</ele>
        <time>2021-07-23T12:21:28Z</time>
      </trkpt>
      <trkpt lat="43.13282" lon="0.90719">
        <ele>391</ele>
        <time>2021-07-23T12:21:33Z</time>
      </trkpt>
      <trkpt lat="43.13231" lon="0.90737">
        <ele>392</ele>
        <time>2021-07-23T12:21:46Z</time>
      </trkpt>
      <trkpt lat="43.13139" lon="0.9076">
        <ele>388</ele>
        <time>2021-07-23T12:22:07Z</time>
      </trkpt>
      <trkpt lat="43.13062" lon="0.90768">
        <ele>380</ele>
        <time>2021-07-23T12:22:26Z</time>
      </trkpt>
      <trkpt lat="43.12909" lon="0.90799">
        <ele>362</ele>
        <time>2021-07-23T12:23:02Z</time>
      </trkpt>
      <trkpt lat="43.12892" lon="0.90813">
        <ele>360</ele>
        <time>2021-07-23T12:23:06Z</time>
      </trkpt>
      <trkpt lat="43.12877" lon="0.90842">
        <ele>357</ele>
        <time>2021-07-23T12:23:12Z</time>
      </trkpt>
      <trkpt lat="43.12807" lon="0.91028">
        <ele>347</ele>
        <time>2021-07-23T12:23:48Z</time>
      </trkpt>
      <trkpt lat="43.12797" lon="0.91074">
        <ele>344</ele>
        <time>2021-07-23T12:23:56Z</time>
      </trkpt>
      <trkpt lat="43.1279" lon="0.9113">
        <ele>342</ele>
        <time>2021-07-23T12:24:06Z</time>
      </trkpt>
      <trkpt lat="43.12789" lon="0.9118">
        <ele>340</ele>
        <time>2021-07-23T12:24:14Z</time>
      </trkpt>
      <trkpt lat="43.12791" lon="0.91221">
        <ele>336</ele>
        <time>2021-07-23T12:24:21Z</time>
      </trkpt>
      <trkpt lat="43.12803" lon="0.91263">
        <ele>333</ele>
        <time>2021-07-23T12:24:29Z</time>
      </trkpt>
      <trkpt lat="43.12854" lon="0.91351">
        <ele>320</ele>
        <time>2021-07-23T12:24:48Z</time>
      </trkpt>
      <trkpt lat="43.12944" lon="0.91455">
        <ele>310</ele>
        <time>2021-07-23T12:25:16Z</time>
      </trkpt>
      <trkpt lat="43.12967" lon="0.9149">
        <ele>309</ele>
        <time>2021-07-23T12:25:24Z</time>
      </trkpt>
      <trkpt lat="43.12986" lon="0.9151">
        <ele>309</ele>
        <time>2021-07-23T12:25:29Z</time>
      </trkpt>
      <trkpt lat="43.13004" lon="0.9151">
        <ele>310</ele>
        <time>2021-07-23T12:25:34Z</time>
      </trkpt>
      <trkpt lat="43.13025" lon="0.91502">
        <ele>309</ele>
        <time>2021-07-23T12:25:39Z</time>
      </trkpt>
      <trkpt lat="43.1308" lon="0.91461">
        <ele>309</ele>
        <time>2021-07-23T12:25:53Z</time>
      </trkpt>
      <trkpt lat="43.13121" lon="0.91437">
        <ele>311</ele>
        <time>2021-07-23T12:26:04Z</time>
      </trkpt>
      <trkpt lat="43.1314" lon="0.91423">
        <ele>312</ele>
        <time>2021-07-23T12:26:09Z</time>
      </trkpt>
      <trkpt lat="43.13169" lon="0.91392">
        <ele>313</ele>
        <time>2021-07-23T12:26:17Z</time>
      </trkpt>
      <trkpt lat="43.13185" lon="0.91385">
        <ele>314</ele>
        <time>2021-07-23T12:26:21Z</time>
      </trkpt>
      <trkpt lat="43.1339" lon="0.91372">
        <ele>310</ele>
        <time>2021-07-23T12:27:09Z</time>
      </trkpt>
      <trkpt lat="43.13423" lon="0.91374">
        <ele>308</ele>
        <time>2021-07-23T12:27:17Z</time>
      </trkpt>
      <trkpt lat="43.13494" lon="0.91388">
        <ele>303</ele>
        <time>2021-07-23T12:27:34Z</time>
      </trkpt>
      <trkpt lat="43.1353" lon="0.91376">
        <ele>307</ele>
        <time>2021-07-23T12:27:42Z</time>
      </trkpt>
      <trkpt lat="43.13575" lon="0.91352">
        <ele>312</ele>
        <time>2021-07-23T12:27:54Z</time>
      </trkpt>
      <trkpt lat="43.13599" lon="0.91328">
        <ele>315</ele>
        <time>2021-07-23T12:28:00Z</time>
      </trkpt>
      <trkpt lat="43.1362" lon="0.91296">
        <ele>317</ele>
        <time>2021-07-23T12:28:08Z</time>
      </trkpt>
      <trkpt lat="43.13666" lon="0.91198">
        <ele>317</ele>
        <time>2021-07-23T12:28:28Z</time>
      </trkpt>
      <trkpt lat="43.13682" lon="0.91181">
        <ele>317</ele>
        <time>2021-07-23T12:28:32Z</time>
      </trkpt>
      <trkpt lat="43.13757" lon="0.91147">
        <ele>319</ele>
        <time>2021-07-23T12:28:51Z</time>
      </trkpt>
      <trkpt lat="43.1379" lon="0.91125">
        <ele>321</ele>
        <time>2021-07-23T12:28:59Z</time>
      </trkpt>
      <trkpt lat="43.13833" lon="0.91082">
        <ele>320</ele>
        <time>2021-07-23T12:29:12Z</time>
      </trkpt>
      <trkpt lat="43.13931" lon="0.90968">
        <ele>330</ele>
        <time>2021-07-23T12:29:42Z</time>
      </trkpt>
      <trkpt lat="43.14001" lon="0.90933">
        <ele>329</ele>
        <time>2021-07-23T12:29:59Z</time>
      </trkpt>
      <trkpt lat="43.14049" lon="0.90897">
        <ele>333</ele>
        <time>2021-07-23T12:30:12Z</time>
      </trkpt>
      <trkpt lat="43.14085" lon="0.90856">
        <ele>334</ele>
        <time>2021-07-23T12:30:23Z</time>
      </trkpt>
      <trkpt lat="43.1419" lon="0.90783">
        <ele>337</ele>
        <time>2021-07-23T12:30:50Z</time>
      </trkpt>
      <trkpt lat="43.14237" lon="0.90756">
        <ele>339</ele>
        <time>2021-07-23T12:31:02Z</time>
      </trkpt>
      <trkpt lat="43.14293" lon="0.90733">
        <ele>342</ele>
        <time>2021-07-23T12:31:16Z</time>
      </trkpt>
      <trkpt lat="43.1435" lon="0.90697">
        <ele>344</ele>
        <time>2021-07-23T12:31:31Z</time>
      </trkpt>
      <trkpt lat="43.14432" lon="0.90659">
        <ele>349</ele>
        <time>2021-07-23T12:31:51Z</time>
      </trkpt>
      <trkpt lat="43.14493" lon="0.90601">
        <ele>351</ele>
        <time>2021-07-23T12:32:08Z</time>
      </trkpt>
      <trkpt lat="43.14508" lon="0.90595">
        <ele>352</ele>
        <time>2021-07-23T12:32:12Z</time>
      </trkpt>
      <trkpt lat="43.14571" lon="0.9059">
        <ele>357</ele>
        <time>2021-07-23T12:32:27Z</time>
      </trkpt>
      <trkpt lat="43.14653" lon="0.9057">
        <ele>363</ele>
        <time>2021-07-23T12:32:46Z</time>
      </trkpt>
      <trkpt lat="43.14681" lon="0.90557">
        <ele>365</ele>
        <time>2021-07-23T12:32:53Z</time>
      </trkpt>
      <trkpt lat="43.14709" lon="0.90534">
        <ele>367</ele>
        <time>2021-07-23T12:33:01Z</time>
      </trkpt>
      <trkpt lat="43.14789" lon="0.90454">
        <ele>371</ele>
        <time>2021-07-23T12:33:24Z</time>
      </trkpt>
      <trkpt lat="43.14818" lon="0.90441">
        <ele>373</ele>
        <time>2021-07-23T12:33:31Z</time>
      </trkpt>
      <trkpt lat="43.1483" lon="0.9043">
        <ele>373</ele>
        <time>2021-07-23T12:33:34Z</time>
      </trkpt>
      <trkpt lat="43.14845" lon="0.90391">
        <ele>374</ele>
        <time>2021-07-23T12:33:42Z</time>
      </trkpt>
      <trkpt lat="43.14875" lon="0.90269">
        <ele>377</ele>
        <time>2021-07-23T12:34:04Z</time>
      </trkpt>
      <trkpt lat="43.14906" lon="0.90123">
        <ele>387</ele>
        <time>2021-07-23T12:34:30Z</time>
      </trkpt>
      <trkpt lat="43.14914" lon="0.90052">
        <ele>391</ele>
        <time>2021-07-23T12:34:42Z</time>
      </trkpt>
      <trkpt lat="43.14885" lon="0.89799">
        <ele>388</ele>
        <time>2021-07-23T12:35:25Z</time>
      </trkpt>
      <trkpt lat="43.14867" lon="0.89703">
        <ele>387</ele>
        <time>2021-07-23T12:35:42Z</time>
      </trkpt>
      <trkpt lat="43.14841" lon="0.8961">
        <ele>387</ele>
        <time>2021-07-23T12:35:59Z</time>
      </trkpt>
      <trkpt lat="43.1484" lon="0.89582">
        <ele>388</ele>
        <time>2021-07-23T12:36:04Z</time>
      </trkpt>
      <trkpt lat="43.14851" lon="0.89489">
        <ele>396</ele>
        <time>2021-07-23T12:36:20Z</time>
      </trkpt>
      <trkpt lat="43.14851" lon="0.89441">
        <ele>398</ele>
        <time>2021-07-23T12:36:28Z</time>
      </trkpt>
      <trkpt lat="43.14845" lon="0.89425">
        <ele>399</ele>
        <time>2021-07-23T12:36:31Z</time>
      </trkpt>
      <trkpt lat="43.14794" lon="0.89418">
        <ele>394</ele>
        <time>2021-07-23T12:36:43Z</time>
      </trkpt>
      <trkpt lat="43.14754" lon="0.89407">
        <ele>390</ele>
        <time>2021-07-23T12:36:53Z</time>
      </trkpt>
      <trkpt lat="43.14715" lon="0.89408">
        <ele>388</ele>
        <time>2021-07-23T12:37:02Z</time>
      </trkpt>
      <trkpt lat="43.14691" lon="0.89433">
        <ele>387</ele>
        <time>2021-07-23T12:37:09Z</time>
      </trkpt>
      <trkpt lat="43.14664" lon="0.89444">
        <ele>386</ele>
        <time>2021-07-23T12:37:16Z</time>
      </trkpt>
      <trkpt lat="43.14596" lon="0.89461">
        <ele>393</ele>
        <time>2021-07-23T12:37:32Z</time>
      </trkpt>
      <trkpt lat="43.14564" lon="0.89495">
        <ele>397</ele>
        <time>2021-07-23T12:37:41Z</time>
      </trkpt>
      <trkpt lat="43.14518" lon="0.89557">
        <ele>400</ele>
        <time>2021-07-23T12:37:56Z</time>
      </trkpt>
      <trkpt lat="43.14502" lon="0.89574">
        <ele>402</ele>
        <time>2021-07-23T12:38:01Z</time>
      </trkpt>
      <trkpt lat="43.14487" lon="0.8958">
        <ele>404</ele>
        <time>2021-07-23T12:38:05Z</time>
      </trkpt>
      <trkpt lat="43.14407" lon="0.89553">
        <ele>415</ele>
        <time>2021-07-23T12:38:24Z</time>
      </trkpt>
      <trkpt lat="43.14392" lon="0.89544">
        <ele>415</ele>
        <time>2021-07-23T12:38:28Z</time>
      </trkpt>
      <trkpt lat="43.14391" lon="0.89522">
        <ele>416</ele>
        <time>2021-07-23T12:38:31Z</time>
      </trkpt>
      <trkpt lat="43.14413" lon="0.89427">
        <ele>417</ele>
        <time>2021-07-23T12:38:48Z</time>
      </trkpt>
      <trkpt lat="43.14423" lon="0.89403">
        <ele>416</ele>
        <time>2021-07-23T12:38:53Z</time>
      </trkpt>
      <trkpt lat="43.14452" lon="0.89355">
        <ele>413</ele>
        <time>2021-07-23T12:39:04Z</time>
      </trkpt>
    </trkseg>
  </trk>
</gpx>